createdAt,value
2017-12-16T00:04:18.497Z,28
2017-12-16T00:14:18.463Z,24
2017-12-16T00:24:18.555Z,21
2017-12-16T00:34:18.582Z,21
2017-12-16T00:44:18.929Z,22
2017-12-16T00:54:18.516Z,20
2017-12-16T01:04:18.670Z,21
2017-12-16T01:14:18.642Z,22
2017-12-16T01:24:18.674Z,24
2017-12-16T01:34:18.576Z,24
2017-12-16T01:44:32.735Z,21
2017-12-16T01:54:18.646Z,23
2017-12-16T02:04:18.603Z,21
2017-12-16T02:15:04.250Z,23
2017-12-16T02:24:18.587Z,23
2017-12-16T02:34:18.661Z,24
2017-12-16T02:44:18.721Z,24
2017-12-16T02:54:18.673Z,25
2017-12-16T03:04:18.709Z,25
2017-12-16T03:14:19.205Z,25
2017-12-16T03:24:18.657Z,24
2017-12-16T03:34:18.633Z,25
2017-12-16T03:44:18.693Z,25
2017-12-16T03:54:18.655Z,27
2017-12-16T04:04:18.676Z,27
2017-12-16T04:14:18.661Z,28
2017-12-16T04:24:18.730Z,27
2017-12-16T04:34:18.705Z,27
2017-12-16T04:44:18.776Z,26
2017-12-16T04:54:18.768Z,23
2017-12-16T05:04:18.676Z,22
2017-12-16T05:14:18.738Z,21
2017-12-16T05:24:18.677Z,21
2017-12-16T05:34:18.734Z,24
2017-12-16T05:44:18.710Z,25
2017-12-16T05:54:18.829Z,27
2017-12-16T06:04:18.762Z,27
2017-12-16T06:14:18.816Z,25
2017-12-16T06:24:18.762Z,26
2017-12-16T06:34:18.787Z,27
2017-12-16T06:44:18.784Z,27
2017-12-16T06:54:18.884Z,26
2017-12-16T07:04:18.843Z,28
2017-12-16T07:14:18.778Z,27
2017-12-16T07:24:18.863Z,28
2017-12-16T07:34:18.847Z,26
2017-12-16T07:44:18.879Z,26
2017-12-16T07:54:18.826Z,25
2017-12-16T08:04:18.992Z,25
2017-12-16T08:14:18.856Z,23
2017-12-16T08:24:18.792Z,23
2017-12-16T08:34:18.899Z,21
2017-12-16T08:44:18.884Z,19
2017-12-16T08:54:18.920Z,18
2017-12-16T09:04:18.900Z,16
2017-12-16T09:14:18.943Z,14
2017-12-16T09:24:18.905Z,15
2017-12-16T09:34:18.894Z,12
2017-12-16T09:44:19.047Z,10
2017-12-16T09:54:18.955Z,10
2017-12-16T10:04:19.047Z,7
2017-12-16T10:14:18.958Z,7
2017-12-16T10:24:19.082Z,6
2017-12-16T10:34:19.052Z,5
2017-12-16T10:44:19.054Z,5
2017-12-16T10:54:19.026Z,4
2017-12-16T11:04:19.086Z,4
2017-12-16T11:14:19.116Z,3
2017-12-16T11:24:18.978Z,3
2017-12-16T11:34:19.028Z,2
2017-12-16T11:44:18.970Z,2
2017-12-16T11:54:19.035Z,2
2017-12-16T12:04:19.032Z,1
2017-12-16T12:14:19.067Z,2
2017-12-16T12:24:19.032Z,2
2017-12-16T12:34:19.241Z,1
2017-12-16T12:44:19.180Z,2
2017-12-16T12:54:19.913Z,1
2017-12-16T13:04:20.134Z,1
2017-12-16T13:14:19.125Z,1
2017-12-16T13:24:19.179Z,3
2017-12-16T13:40:47.577Z,2
2017-12-16T13:44:19.071Z,2
2017-12-16T13:54:19.069Z,2
2017-12-16T14:04:19.171Z,2
2017-12-16T14:14:19.178Z,1
2017-12-16T14:24:19.185Z,2
2017-12-16T14:34:19.353Z,2
2017-12-16T14:44:19.298Z,1
2017-12-16T14:54:19.200Z,2
2017-12-16T15:04:19.162Z,1
2017-12-16T15:14:19.180Z,2
2017-12-16T15:24:19.488Z,2
2017-12-16T15:34:19.444Z,2
2017-12-16T15:44:19.144Z,1
2017-12-16T15:54:19.560Z,2
2017-12-16T16:04:19.292Z,1
2017-12-16T16:14:19.325Z,1
2017-12-16T16:24:19.512Z,2
2017-12-16T16:34:19.557Z,2
2017-12-16T16:44:19.884Z,2
2017-12-16T16:54:19.336Z,2
2017-12-16T17:04:19.595Z,2
2017-12-16T17:14:19.288Z,2
2017-12-16T17:24:19.310Z,2
2017-12-16T17:34:19.277Z,2
2017-12-16T17:44:19.230Z,2
2017-12-16T17:54:19.732Z,1
2017-12-16T18:04:19.522Z,1
2017-12-16T18:14:19.753Z,1
2017-12-16T18:24:19.265Z,2
2017-12-16T18:34:19.383Z,3
2017-12-16T18:44:19.294Z,3
2017-12-16T18:54:19.506Z,3
2017-12-16T19:04:19.375Z,3
2017-12-16T19:14:19.722Z,3
2017-12-16T19:24:19.606Z,4
2017-12-16T19:34:19.294Z,3
2017-12-16T19:44:19.466Z,4
2017-12-16T19:54:19.443Z,7
2017-12-16T20:04:19.391Z,4
2017-12-16T20:14:19.442Z,3
2017-12-16T20:24:19.990Z,3
2017-12-16T20:34:19.985Z,3
2017-12-16T20:44:20.334Z,4
2017-12-16T20:54:20.057Z,4
2017-12-16T21:04:19.815Z,5
2017-12-16T21:14:19.787Z,5
2017-12-16T21:24:19.650Z,6
2017-12-16T21:34:19.665Z,6
2017-12-16T21:44:20.050Z,8
2017-12-16T21:54:19.686Z,6
2017-12-16T22:04:19.531Z,8
2017-12-16T22:14:19.772Z,8
2017-12-16T22:24:19.745Z,9
2017-12-16T22:34:20.056Z,12
2017-12-16T22:44:20.982Z,10
2017-12-16T22:54:19.580Z,10
2017-12-16T23:04:19.804Z,10
2017-12-16T23:14:19.561Z,12
2017-12-16T23:24:19.620Z,9
2017-12-16T23:34:19.523Z,8
2017-12-16T23:44:19.650Z,9
2017-12-16T23:54:19.572Z,11
